createdAt,value
2023-04-29T00:02:13.375Z,1018.43
2023-04-29T00:04:40.442Z,1018.58
2023-04-29T00:07:07.560Z,1018.57
2023-04-29T00:09:34.302Z,1018.35
2023-04-29T00:12:02.453Z,1018.31
2023-04-29T00:14:29.274Z,1018.45
2023-04-29T00:16:56.123Z,1018.45
2023-04-29T00:19:22.877Z,1018.34
2023-04-29T00:21:49.708Z,1018.21
2023-04-29T00:24:16.516Z,1018.21
2023-04-29T00:26:43.584Z,1018.24
2023-04-29T00:29:11.850Z,1018.22
2023-04-29T00:31:38.726Z,1018.26
2023-04-29T00:34:05.617Z,1018.36
2023-04-29T00:36:32.545Z,1018.59
2023-04-29T00:38:59.346Z,1018.47
2023-04-29T00:41:26.314Z,1018.41
2023-04-29T00:43:53.051Z,1018.49
2023-04-29T00:46:21.324Z,1018.54
2023-04-29T00:48:48.115Z,1018.59
2023-04-29T00:51:16.637Z,1018.62
2023-04-29T00:53:43.579Z,1018.48
2023-04-29T00:56:10.656Z,1018.46
2023-04-29T00:58:37.742Z,1018.49
2023-04-29T01:01:04.850Z,1018.49
2023-04-29T01:03:33.157Z,1018.53
2023-04-29T01:06:09.185Z,1018.69
2023-04-29T01:08:46.438Z,1018.67
2023-04-29T01:11:16.106Z,1018.59
2023-04-29T01:13:46.175Z,1018.45
2023-04-29T01:16:21.472Z,1018.49
2023-04-29T01:18:54.349Z,1018.60
2023-04-29T01:21:21.529Z,1018.54
2023-04-29T01:23:49.872Z,1018.42
2023-04-29T01:26:16.647Z,1018.48
2023-04-29T01:28:50.627Z,1018.46
2023-04-29T01:31:22.595Z,1018.47
2023-04-29T01:33:59.904Z,1018.42
2023-04-29T01:36:36.930Z,1018.50
2023-04-29T01:39:13.468Z,1018.66
2023-04-29T01:41:44.356Z,1018.76
2023-04-29T01:44:15.972Z,1018.71
2023-04-29T01:46:44.522Z,1018.73
2023-04-29T01:49:12.838Z,1018.70
2023-04-29T01:51:39.646Z,1018.66
2023-04-29T01:54:07.882Z,1018.68
2023-04-29T01:56:34.659Z,1018.71
2023-04-29T01:59:01.417Z,1018.72
2023-04-29T02:01:28.200Z,1018.59
2023-04-29T02:03:55.157Z,1018.76
2023-04-29T02:06:22.073Z,1018.52
2023-04-29T02:08:48.866Z,1018.48
2023-04-29T02:11:16.976Z,1018.52
2023-04-29T02:13:43.698Z,1018.50
2023-04-29T02:16:12.153Z,1018.47
2023-04-29T02:18:39.052Z,1018.43
2023-04-29T02:21:05.872Z,1018.50
2023-04-29T02:23:32.670Z,1018.56
2023-04-29T02:25:59.574Z,1018.49
2023-04-29T02:28:27.891Z,1018.55
2023-04-29T02:30:54.717Z,1018.64
2023-04-29T02:33:23.768Z,1018.68
2023-04-29T02:35:50.702Z,1018.54
2023-04-29T02:38:17.442Z,1018.56
2023-04-29T02:40:45.005Z,1018.54
2023-04-29T02:43:12.065Z,1018.46
2023-04-29T02:45:40.449Z,1018.42
2023-04-29T02:48:07.489Z,1018.35
2023-04-29T02:50:34.550Z,1018.34
2023-04-29T02:53:01.335Z,1018.28
2023-04-29T02:55:28.091Z,1018.34
2023-04-29T02:57:55.035Z,1018.28
2023-04-29T03:00:22.050Z,1018.18
2023-04-29T03:02:50.435Z,1018.34
2023-04-29T03:05:17.307Z,1018.29
2023-04-29T03:07:44.127Z,1018.30
2023-04-29T03:10:10.850Z,1018.24
2023-04-29T03:12:37.640Z,1018.22
2023-04-29T03:15:05.658Z,1018.18
2023-04-29T03:17:32.494Z,1018.19
2023-04-29T03:20:00.667Z,1018.22
2023-04-29T03:22:27.426Z,1018.12
2023-04-29T03:24:54.200Z,1018.06
2023-04-29T03:27:21.078Z,1018.11
2023-04-29T03:29:47.803Z,1018.09
2023-04-29T03:32:14.553Z,1018.12
2023-04-29T03:34:41.287Z,1018.10
2023-04-29T03:37:09.515Z,1018.15
2023-04-29T03:39:36.240Z,1018.14
2023-04-29T03:42:02.980Z,1018.12
2023-04-29T03:44:29.798Z,1018.18
2023-04-29T03:46:56.574Z,1018.07
2023-04-29T03:49:23.321Z,1018.12
2023-04-29T03:51:50.142Z,1018.14
2023-04-29T03:54:18.405Z,1018.18
2023-04-29T03:56:45.138Z,1018.13
2023-04-29T03:59:11.868Z,1018.11
2023-04-29T04:01:38.781Z,1018.26
2023-04-29T04:04:05.843Z,1018.21
2023-04-29T04:06:32.940Z,1018.14
2023-04-29T04:08:59.844Z,1018.23
2023-04-29T04:11:27.965Z,1018.23
2023-04-29T04:13:54.796Z,1018.22
2023-04-29T04:16:21.637Z,1018.20
2023-04-29T04:18:48.386Z,1018.22
2023-04-29T04:21:15.133Z,1018.20
2023-04-29T04:23:41.865Z,1018.20
2023-04-29T04:26:08.685Z,1018.23
2023-04-29T04:28:36.874Z,1018.19
2023-04-29T04:31:03.746Z,1018.22
2023-04-29T04:33:30.495Z,1018.26
2023-04-29T04:35:58.005Z,1018.21
2023-04-29T04:38:24.788Z,1018.19
2023-04-29T04:40:51.612Z,1018.18
2023-04-29T04:43:18.343Z,1018.10
2023-04-29T04:45:46.489Z,1018.07
2023-04-29T04:48:13.324Z,1018.07
2023-04-29T04:50:40.144Z,1018.06
2023-04-29T04:53:06.972Z,1018.02
2023-04-29T04:55:33.758Z,1017.89
2023-04-29T04:58:00.586Z,1017.87
2023-04-29T05:00:27.333Z,1017.77
2023-04-29T05:02:55.951Z,1017.74
2023-04-29T05:05:22.876Z,1017.75
2023-04-29T05:07:49.594Z,1017.74
2023-04-29T05:10:16.309Z,1017.73
2023-04-29T05:12:43.028Z,1017.70
2023-04-29T05:15:10.511Z,1017.73
2023-04-29T05:17:37.400Z,1017.72
2023-04-29T05:20:07.162Z,1017.61
2023-04-29T05:22:34.054Z,1017.58
2023-04-29T05:25:00.816Z,1017.53
2023-04-29T05:27:27.587Z,1017.51
2023-04-29T05:29:54.635Z,1017.44
2023-04-29T05:32:21.786Z,1017.49
2023-04-29T05:34:48.608Z,1017.47
2023-04-29T05:37:17.395Z,1017.50
2023-04-29T05:39:44.224Z,1017.47
2023-04-29T05:42:11.028Z,1017.42
2023-04-29T05:44:37.761Z,1017.37
2023-04-29T05:47:04.532Z,1017.33
2023-04-29T05:49:31.315Z,1017.27
2023-04-29T05:51:58.277Z,1017.31
2023-04-29T05:54:26.507Z,1017.21
2023-04-29T05:56:53.308Z,1017.16
2023-04-29T05:59:20.051Z,1017.10
2023-04-29T06:01:46.858Z,1017.14
2023-04-29T06:04:13.859Z,1017.10
2023-04-29T06:06:41.977Z,1017.09
2023-04-29T06:09:19.937Z,1017.14
2023-04-29T06:11:55.132Z,1017.19
2023-04-29T06:14:22.015Z,1017.24
2023-04-29T06:16:49.111Z,1017.28
2023-04-29T06:19:15.846Z,1017.17
2023-04-29T06:21:42.735Z,1017.20
2023-04-29T06:24:09.587Z,1017.07
2023-04-29T06:26:36.418Z,1017.09
2023-04-29T06:29:04.626Z,1017.01
2023-04-29T06:31:31.452Z,1016.93
2023-04-29T06:33:58.412Z,1016.92
2023-04-29T06:36:25.353Z,1016.87
2023-04-29T06:38:52.100Z,1016.78
2023-04-29T06:41:18.899Z,1016.75
2023-04-29T06:43:47.347Z,1016.79
2023-04-29T06:46:16.907Z,1016.71
2023-04-29T06:48:43.877Z,1016.55
2023-04-29T06:51:10.666Z,1016.46
2023-04-29T06:53:37.555Z,1016.54
2023-04-29T06:56:04.856Z,1016.47
2023-04-29T06:58:31.652Z,1016.44
2023-04-29T07:00:58.500Z,1016.41
2023-04-29T07:03:26.786Z,1016.33
2023-04-29T07:05:53.677Z,1016.35
2023-04-29T07:08:20.508Z,1016.26
2023-04-29T07:10:54.125Z,1016.26
2023-04-29T07:13:22.535Z,1016.26
2023-04-29T07:15:49.348Z,1016.25
2023-04-29T07:18:16.101Z,1016.12
2023-04-29T07:20:44.488Z,1016.10
2023-04-29T07:23:11.346Z,1016.07
2023-04-29T07:25:38.179Z,1016.10
2023-04-29T07:28:05.902Z,1016.15
2023-04-29T07:30:33.300Z,1016.17
2023-04-29T07:33:03.936Z,1016.12
2023-04-29T07:35:57.778Z,1016.02
2023-04-29T07:38:27.770Z,1016.00
2023-04-29T07:40:54.608Z,1016.03
2023-04-29T07:43:21.380Z,1015.98
2023-04-29T07:46:08.796Z,1015.83
2023-04-29T07:49:21.069Z,1015.81
2023-04-29T07:52:36.958Z,1015.76
2023-04-29T07:55:24.671Z,1015.77
2023-04-29T07:57:53.987Z,1015.80
2023-04-29T08:00:43.524Z,1015.81
2023-04-29T08:06:28.833Z,1015.74
2023-04-29T08:09:24.598Z,1015.68
2023-04-29T08:11:51.952Z,1015.52
2023-04-29T08:14:18.877Z,1015.52
2023-04-29T08:16:45.634Z,1015.36
2023-04-29T08:19:12.488Z,1015.38
2023-04-29T08:21:39.551Z,1015.25
2023-04-29T08:24:06.480Z,1015.15
2023-04-29T08:26:34.731Z,1015.01
2023-04-29T08:29:01.684Z,1014.97
2023-04-29T08:31:28.816Z,1014.86
2023-04-29T08:33:55.824Z,1014.80
2023-04-29T08:36:22.724Z,1014.74
2023-04-29T08:38:49.570Z,1014.56
2023-04-29T08:41:16.346Z,1014.72
2023-04-29T08:43:44.991Z,1014.56
2023-04-29T08:46:12.355Z,1014.50
2023-04-29T08:48:41.320Z,1014.45
2023-04-29T08:51:11.917Z,1014.20
2023-04-29T08:53:38.783Z,1013.96
2023-04-29T08:56:13.420Z,1013.85
2023-04-29T08:58:41.970Z,1013.67
2023-04-29T09:01:10.501Z,1013.48
2023-04-29T09:03:44.786Z,1013.38
2023-04-29T09:06:12.570Z,1013.27
2023-04-29T09:08:40.237Z,1013.15
2023-04-29T09:11:09.109Z,1013.09
2023-04-29T09:13:36.032Z,1012.92
2023-04-29T09:16:02.921Z,1012.76
2023-04-29T09:18:45.981Z,1012.79
2023-04-29T09:21:22.186Z,1012.60
2023-04-29T09:23:51.729Z,1012.48
2023-04-29T09:26:19.339Z,1012.35
2023-04-29T09:28:46.565Z,1012.23
2023-04-29T09:31:14.164Z,1012.20
2023-04-29T09:33:53.704Z,1012.11
2023-04-29T09:36:38.106Z,1012.23
2023-04-29T09:39:05.808Z,1012.03
2023-04-29T09:41:33.078Z,1012.01
2023-04-29T09:44:06.303Z,1011.87
2023-04-29T09:46:33.450Z,1011.75
2023-04-29T09:49:02.349Z,1012.02
2023-04-29T09:51:29.117Z,1012.02
2023-04-29T09:53:55.922Z,1011.76
2023-04-29T09:56:22.677Z,1011.65
2023-04-29T09:58:49.543Z,1011.64
2023-04-29T10:01:17.066Z,1011.55
2023-04-29T10:03:45.050Z,1011.53
2023-04-29T10:06:14.304Z,1011.40
2023-04-29T10:08:41.167Z,1011.31
2023-04-29T10:11:08.021Z,1011.24
2023-04-29T10:13:35.530Z,1011.18
2023-04-29T10:16:11.382Z,1011.00
2023-04-29T10:18:41.828Z,1010.95
2023-04-29T10:21:09.259Z,1010.82
2023-04-29T10:23:37.871Z,1010.66
2023-04-29T10:26:07.526Z,1010.68
2023-04-29T10:28:36.992Z,1010.60
2023-04-29T10:31:05.574Z,1010.67
2023-04-29T10:33:32.688Z,1010.77
2023-04-29T10:36:00.131Z,1010.56
2023-04-29T10:38:30.879Z,1010.48
2023-04-29T10:41:03.043Z,1010.54
2023-04-29T10:43:33.709Z,1010.42
2023-04-29T10:46:23.320Z,1010.28
2023-04-29T10:48:58.933Z,1010.13
2023-04-29T10:51:31.722Z,1010.04
2023-04-29T10:54:07.433Z,1010.04
2023-04-29T10:56:41.701Z,1009.98
2023-04-29T10:59:14.113Z,1009.98
2023-04-29T11:01:43.336Z,1009.92
2023-04-29T11:04:10.445Z,1009.81
2023-04-29T11:06:42.431Z,1009.70
2023-04-29T11:09:14.460Z,1009.95
2023-04-29T11:11:47.600Z,1009.96
2023-04-29T11:14:15.403Z,1009.86
2023-04-29T11:16:49.366Z,1009.75
2023-04-29T11:19:17.203Z,1009.64
2023-04-29T11:21:45.851Z,1009.59
2023-04-29T11:24:13.449Z,1009.56
2023-04-29T11:26:40.408Z,1009.47
2023-04-29T11:29:08.863Z,1009.40
2023-04-29T11:31:35.795Z,1009.47
2023-04-29T11:34:04.561Z,1009.43
2023-04-29T11:36:32.322Z,1009.51
2023-04-29T11:39:00.618Z,1009.41
2023-04-29T11:41:27.895Z,1009.34
2023-04-29T11:43:59.149Z,1009.31
2023-04-29T11:46:31.592Z,1009.29
2023-04-29T11:48:58.939Z,1009.19
2023-04-29T11:51:25.835Z,1009.24
2023-04-29T11:53:52.773Z,1009.22
2023-04-29T11:56:22.008Z,1009.51
2023-04-29T11:58:48.813Z,1009.12
2023-04-29T12:01:15.731Z,1009.12
2023-04-29T12:03:44.303Z,1008.95
2023-04-29T12:06:13.695Z,1008.91
2023-04-29T12:08:40.585Z,1008.98
2023-04-29T12:11:08.026Z,1009.00
2023-04-29T12:13:34.980Z,1009.03
2023-04-29T12:16:02.481Z,1009.14
2023-04-29T12:18:29.678Z,1009.36
2023-04-29T12:20:57.928Z,1009.37
2023-04-29T12:23:25.837Z,1009.54
2023-04-29T12:25:54.913Z,1009.75
2023-04-29T12:28:22.357Z,1009.77
2023-04-29T12:30:50.394Z,1009.77
2023-04-29T12:33:20.595Z,1009.78
2023-04-29T12:35:48.050Z,1009.85
2023-04-29T12:38:20.617Z,1009.93
2023-04-29T12:40:47.634Z,1009.82
2023-04-29T12:43:14.837Z,1009.76
2023-04-29T12:45:41.582Z,1009.66
2023-04-29T12:48:12.401Z,1009.71
2023-04-29T12:50:49.985Z,1009.97
2023-04-29T12:53:18.222Z,1009.99
2023-04-29T12:55:44.983Z,1009.97
2023-04-29T12:58:11.751Z,1009.94
2023-04-29T13:00:38.631Z,1009.92
2023-04-29T13:03:05.837Z,1009.93
2023-04-29T13:05:32.887Z,1010.04
2023-04-29T13:07:59.702Z,1010.07
2023-04-29T13:10:28.142Z,1010.24
2023-04-29T13:12:55.078Z,1010.55
2023-04-29T13:15:21.789Z,1010.55
2023-04-29T13:17:48.758Z,1010.70
2023-04-29T13:20:15.583Z,1010.72
2023-04-29T13:22:42.349Z,1010.82
2023-04-29T13:25:09.980Z,1010.99
2023-04-29T13:27:38.365Z,1011.23
2023-04-29T13:30:06.012Z,1011.61
2023-04-29T13:32:43.633Z,1011.47
2023-04-29T13:35:12.906Z,1011.57
2023-04-29T13:37:39.608Z,1011.52
2023-04-29T13:40:08.258Z,1011.56
2023-04-29T13:42:42.296Z,1011.87
2023-04-29T13:45:16.372Z,1011.89
2023-04-29T13:48:03.677Z,1011.88
2023-04-29T13:56:23.418Z,1011.92
2023-04-29T13:58:52.196Z,1011.82
2023-04-29T14:01:37.869Z,1011.59
2023-04-29T14:03:51.655Z,1011.39
2023-04-29T14:06:18.693Z,1011.18
2023-04-29T14:08:45.548Z,1011.00
2023-04-29T14:11:12.302Z,1010.72
2023-04-29T14:13:39.052Z,1010.68
2023-04-29T14:16:08.592Z,1010.57
2023-04-29T14:18:35.388Z,1010.43
2023-04-29T14:21:02.137Z,1010.36
2023-04-29T14:23:28.863Z,1010.35
2023-04-29T14:26:06.198Z,1010.29
2023-04-29T14:28:42.779Z,1010.28
2023-04-29T14:31:11.084Z,1010.35
2023-04-29T14:33:37.860Z,1010.42
2023-04-29T14:36:05.306Z,1010.52
2023-04-29T14:38:33.263Z,1010.58
2023-04-29T14:41:00.000Z,1010.64
2023-04-29T14:43:26.992Z,1010.67
2023-04-29T14:45:53.847Z,1010.73
2023-04-29T14:48:22.055Z,1010.72
2023-04-29T14:50:49.368Z,1010.72
2023-04-29T14:53:16.216Z,1010.79
2023-04-29T14:55:43.243Z,1010.86
2023-04-29T14:58:10.021Z,1010.92
2023-04-29T15:00:36.794Z,1010.81
2023-04-29T15:03:04.266Z,1010.78
2023-04-29T15:05:32.704Z,1010.86
2023-04-29T15:07:59.494Z,1010.88
2023-04-29T15:10:26.423Z,1010.97
2023-04-29T15:12:53.271Z,1011.07
2023-04-29T15:15:20.282Z,1011.24
2023-04-29T15:17:47.166Z,1011.31
2023-04-29T15:20:14.043Z,1011.58
2023-04-29T15:22:42.527Z,1011.57
2023-04-29T15:25:09.991Z,1011.65
2023-04-29T15:27:37.201Z,1011.59
2023-04-29T15:30:04.612Z,1011.68
2023-04-29T15:32:31.575Z,1011.75
2023-04-29T15:34:59.232Z,1011.87
2023-04-29T15:37:26.209Z,1011.95
2023-04-29T15:39:54.567Z,1012.13
2023-04-29T15:42:22.227Z,1012.28
2023-04-29T15:44:50.152Z,1012.30
2023-04-29T15:47:17.017Z,1012.25
2023-04-29T15:49:44.028Z,1012.19
2023-04-29T15:52:10.948Z,1012.13
2023-04-29T15:54:37.772Z,1012.18
2023-04-29T15:57:06.484Z,1012.13
2023-04-29T15:59:33.257Z,1012.20
2023-04-29T16:02:00.006Z,1012.26
2023-04-29T16:04:26.802Z,1012.41
2023-04-29T16:06:53.533Z,1012.43
2023-04-29T16:09:20.343Z,1012.44
2023-04-29T16:11:47.163Z,1012.54
2023-04-29T16:14:15.368Z,1012.52
2023-04-29T16:16:42.266Z,1012.65
2023-04-29T16:19:09.501Z,1012.77
2023-04-29T16:21:36.213Z,1012.76
2023-04-29T16:24:03.128Z,1013.02
2023-04-29T16:26:29.883Z,1013.03
2023-04-29T16:28:56.693Z,1012.92
2023-04-29T16:31:24.948Z,1013.05
2023-04-29T16:33:51.805Z,1013.07
2023-04-29T16:36:18.963Z,1013.26
2023-04-29T16:38:46.416Z,1013.26
2023-04-29T16:41:14.735Z,1013.46
2023-04-29T16:43:42.066Z,1013.53
2023-04-29T16:46:12.657Z,1013.54
2023-04-29T16:48:43.333Z,1013.55
2023-04-29T16:51:12.361Z,1013.52
2023-04-29T16:53:45.673Z,1013.52
2023-04-29T16:56:12.577Z,1013.58
2023-04-29T16:58:39.300Z,1013.60
2023-04-29T17:01:06.097Z,1013.67
2023-04-29T17:03:33.017Z,1013.74
2023-04-29T17:06:01.228Z,1013.72
2023-04-29T17:08:28.150Z,1013.74
2023-04-29T17:10:54.892Z,1013.78
2023-04-29T17:13:21.646Z,1013.81
2023-04-29T17:15:48.433Z,1013.83
2023-04-29T17:18:15.290Z,1013.97
2023-04-29T17:20:42.061Z,1014.04
2023-04-29T17:23:10.225Z,1014.02
2023-04-29T17:25:37.436Z,1014.10
2023-04-29T17:28:04.763Z,1014.19
2023-04-29T17:30:31.523Z,1014.25
2023-04-29T17:32:58.374Z,1014.36
2023-04-29T17:35:25.115Z,1014.42
2023-04-29T17:37:51.967Z,1014.51
2023-04-29T17:40:20.603Z,1014.62
2023-04-29T17:42:47.392Z,1014.75
2023-04-29T17:45:14.436Z,1014.72
2023-04-29T17:47:41.304Z,1014.76
2023-04-29T17:50:08.691Z,1014.97
2023-04-29T17:52:36.659Z,1015.13
2023-04-29T17:55:03.989Z,1015.19
2023-04-29T17:57:32.146Z,1015.29
2023-04-29T17:59:59.141Z,1015.45
2023-04-29T18:02:26.004Z,1015.41
2023-04-29T18:04:52.814Z,1015.44
2023-04-29T18:07:19.604Z,1015.58
2023-04-29T18:09:46.460Z,1015.64
2023-04-29T18:12:13.328Z,1015.65
2023-04-29T18:14:41.528Z,1015.75
2023-04-29T18:17:08.509Z,1015.79
2023-04-29T18:19:37.418Z,1015.82
2023-04-29T18:22:04.145Z,1015.95
2023-04-29T18:24:30.857Z,1015.99
2023-04-29T18:26:57.686Z,1016.14
2023-04-29T18:29:24.520Z,1016.08
2023-04-29T18:31:52.678Z,1016.25
2023-04-29T18:34:19.423Z,1016.48
2023-04-29T18:36:47.280Z,1016.59
2023-04-29T18:39:13.984Z,1016.55
2023-04-29T18:41:40.812Z,1016.54
2023-04-29T18:44:07.604Z,1016.57
2023-04-29T18:46:34.625Z,1016.71
2023-04-29T18:49:02.856Z,1016.72
2023-04-29T18:51:29.666Z,1016.86
2023-04-29T18:53:56.414Z,1016.99
2023-04-29T18:56:23.238Z,1017.03
2023-04-29T18:58:49.995Z,1017.06
2023-04-29T19:01:16.730Z,1017.05
2023-04-29T19:03:43.477Z,1017.07
2023-04-29T19:06:11.690Z,1016.99
2023-04-29T19:08:40.448Z,1017.03
2023-04-29T19:11:08.380Z,1017.11
2023-04-29T19:13:36.383Z,1017.10
2023-04-29T19:16:04.503Z,1017.21
2023-04-29T19:18:32.395Z,1017.27
2023-04-29T19:21:01.110Z,1017.31
2023-04-29T19:23:29.324Z,1017.38
2023-04-29T19:25:56.105Z,1017.43
2023-04-29T19:28:23.472Z,1017.32
2023-04-29T19:30:50.295Z,1017.29
2023-04-29T19:33:17.102Z,1017.24
2023-04-29T19:35:43.987Z,1017.26
2023-04-29T19:38:10.819Z,1017.16
2023-04-29T19:40:39.024Z,1017.18
2023-04-29T19:43:06.043Z,1017.18
2023-04-29T19:45:32.838Z,1017.16
2023-04-29T19:47:59.992Z,1017.23
2023-04-29T19:50:26.872Z,1017.30
2023-04-29T19:52:53.735Z,1017.35
2023-04-29T19:55:20.650Z,1017.37
2023-04-29T19:57:48.862Z,1017.40
2023-04-29T20:00:15.630Z,1017.37
2023-04-29T20:02:42.532Z,1017.48
2023-04-29T20:05:09.466Z,1017.43
2023-04-29T20:07:36.284Z,1017.51
2023-04-29T20:10:03.263Z,1017.46
2023-04-29T20:12:29.986Z,1017.47
2023-04-29T20:14:58.128Z,1017.43
2023-04-29T20:17:25.186Z,1017.48
2023-04-29T20:19:52.273Z,1017.58
2023-04-29T20:22:19.224Z,1017.57
2023-04-29T20:24:45.969Z,1017.57
2023-04-29T20:27:12.723Z,1017.53
2023-04-29T20:29:39.542Z,1017.64
2023-04-29T20:32:07.839Z,1017.57
2023-04-29T20:34:34.733Z,1017.66
2023-04-29T20:37:01.525Z,1017.65
2023-04-29T20:39:28.568Z,1017.77
2023-04-29T20:41:55.627Z,1017.84
2023-04-29T20:44:22.640Z,1017.98
2023-04-29T20:46:49.396Z,1018.10
2023-04-29T20:49:17.602Z,1018.21
2023-04-29T20:51:44.444Z,1018.24
2023-04-29T20:54:11.179Z,1018.23
2023-04-29T20:56:37.993Z,1018.16
2023-04-29T20:59:04.865Z,1018.24
2023-04-29T21:01:31.715Z,1018.23
2023-04-29T21:03:58.533Z,1018.17
2023-04-29T21:06:27.120Z,1018.18
2023-04-29T21:08:54.133Z,1018.27
2023-04-29T21:11:20.899Z,1018.17
2023-04-29T21:13:47.648Z,1018.17
2023-04-29T21:16:14.431Z,1018.37
2023-04-29T21:18:41.188Z,1018.38
2023-04-29T21:21:08.009Z,1018.39
2023-04-29T21:23:36.289Z,1018.38
2023-04-29T21:26:03.199Z,1018.45
2023-04-29T21:28:29.994Z,1018.54
2023-04-29T21:30:57.763Z,1018.41
2023-04-29T21:33:24.751Z,1018.49
2023-04-29T21:35:51.718Z,1018.49
2023-04-29T21:38:18.512Z,1018.49
2023-04-29T21:40:47.992Z,1018.47
2023-04-29T21:43:16.877Z,1018.52
2023-04-29T21:45:44.050Z,1018.50
2023-04-29T21:48:14.887Z,1018.47
2023-04-29T21:50:42.419Z,1018.54
2023-04-29T21:53:09.308Z,1018.54
2023-04-29T21:55:36.220Z,1018.63
2023-04-29T21:58:04.534Z,1018.55
2023-04-29T22:00:31.998Z,1018.62
2023-04-29T22:02:59.865Z,1018.67
2023-04-29T22:05:26.689Z,1018.69
2023-04-29T22:07:53.594Z,1018.76
2023-04-29T22:10:20.373Z,1018.72
2023-04-29T22:12:47.104Z,1018.79
2023-04-29T22:15:27.258Z,1018.94
2023-04-29T22:17:54.828Z,1019.09
2023-04-29T22:20:21.684Z,1019.09
2023-04-29T22:22:48.432Z,1018.98
2023-04-29T22:25:15.158Z,1018.93
2023-04-29T22:27:41.984Z,1018.90
2023-04-29T22:30:09.668Z,1018.92
2023-04-29T22:32:38.036Z,1018.83
2023-04-29T22:35:05.752Z,1018.90
2023-04-29T22:37:32.552Z,1018.84
2023-04-29T22:39:59.255Z,1018.90
2023-04-29T22:42:26.021Z,1018.91
2023-04-29T22:44:52.844Z,1019.00
2023-04-29T22:47:19.581Z,1019.06
2023-04-29T22:49:47.856Z,1018.89
2023-04-29T22:52:14.597Z,1018.89
2023-04-29T22:54:41.351Z,1018.89
2023-04-29T22:57:08.197Z,1018.89
2023-04-29T22:59:34.950Z,1018.80
2023-04-29T23:02:01.705Z,1018.75
2023-04-29T23:04:28.525Z,1018.88
2023-04-29T23:06:56.715Z,1018.73
2023-04-29T23:09:23.529Z,1018.85
2023-04-29T23:11:50.254Z,1018.84
2023-04-29T23:14:17.037Z,1018.74
2023-04-29T23:16:43.872Z,1018.80
2023-04-29T23:19:10.689Z,1018.87
2023-04-29T23:21:37.450Z,1018.90
2023-04-29T23:24:06.082Z,1018.89
2023-04-29T23:26:32.804Z,1018.82
2023-04-29T23:28:59.607Z,1018.75
2023-04-29T23:31:26.438Z,1018.71
2023-04-29T23:33:53.281Z,1018.78
2023-04-29T23:36:20.040Z,1018.80
2023-04-29T23:38:46.859Z,1018.74
2023-04-29T23:41:14.966Z,1018.77
2023-04-29T23:43:41.760Z,1018.75
2023-04-29T23:46:08.567Z,1018.78
2023-04-29T23:48:35.329Z,1018.78
2023-04-29T23:51:02.096Z,1018.80
2023-04-29T23:53:28.824Z,1018.77
2023-04-29T23:55:55.554Z,1018.88
2023-04-29T23:58:23.688Z,1018.86
